Time;durP1;ratioP1;P1;durP2;ratioP2;P2;SDS_P1;SDS_P2;PMS_P1;PMS_P2;Temp;Humidity;BMP_temperature;BMP_pressure;BME280_temperature;BME280_humidity;BME280_pressure;Samples;Min_cycle;Max_cycle;Signal;HPM_P1;HPM_P2
2022/06/08 00:02:03;;;;;;;6.88;2.55;;;;;;;9.31;54.93;101038.53;4955724;28;20052;-78
2022/06/08 00:04:28;;;;;;;5.05;2.58;;;;;;;9.23;55.16;101035.28;4961039;28;20027;-76
2022/06/08 00:06:54;;;;;;;6.15;2.63;;;;;;;9.15;55.22;101032.94;4955848;28;20098;-78
2022/06/08 00:09:20;;;;;;;5.18;2.50;;;;;;;9.24;55.22;101030.03;4971644;28;20073;-79
2022/06/08 00:11:46;;;;;;;5.03;2.28;;;;;;;9.21;54.69;101027.53;4957292;28;20400;-78
2022/06/08 00:14:13;;;;;;;3.95;2.80;;;;;;;9.16;54.95;101025.09;4971613;28;20581;-77
2022/06/08 00:16:39;;;;;;;3.90;2.90;;;;;;;9.19;54.90;101024.13;4987026;28;20034;-77
2022/06/08 00:19:05;;;;;;;3.58;1.98;;;;;;;9.16;54.90;101019.88;4975410;28;20509;-78
2022/06/08 00:21:30;;;;;;;4.00;1.80;;;;;;;9.07;54.85;101014.06;4954301;28;20041;-76
2022/06/08 00:23:56;;;;;;;3.38;2.47;;;;;;;8.93;55.25;101017.97;4966819;28;20050;-76
2022/06/08 00:26:22;;;;;;;5.72;2.92;;;;;;;8.83;55.44;101016.56;4962154;28;20042;-78
2022/06/08 00:28:48;;;;;;;3.47;3.03;;;;;;;8.79;55.35;101009.72;4974163;28;20500;-76
2022/06/08 00:31:14;;;;;;;4.97;2.28;;;;;;;8.76;55.08;101001.97;4964225;28;20041;-77
2022/06/08 00:33:44;;;;;;;4.28;1.80;;;;;;;8.79;55.21;100999.31;4989665;28;20054;-78
2022/06/08 00:36:10;;;;;;;4.75;2.38;;;;;;;8.82;55.00;101003.56;4974600;28;20027;-78
2022/06/08 00:38:35;;;;;;;6.68;3.05;;;;;;;8.70;54.83;101009.97;4992409;28;20162;-78
2022/06/08 00:41:13;;;;;;;6.40;3.50;;;;;;;8.60;55.59;100996.34;4972928;28;20034;-77
2022/06/08 00:43:39;;;;;;;4.93;2.97;;;;;;;8.59;55.70;101001.63;4984178;28;20074;-77
2022/06/08 00:46:05;;;;;;;3.70;2.67;;;;;;;8.52;55.59;101001.78;4982261;28;20021;-78
2022/06/08 00:48:38;;;;;;;5.47;3.00;;;;;;;8.49;55.30;100996.66;4994445;28;20038;-76
2022/06/08 00:51:04;;;;;;;3.55;2.95;;;;;;;8.50;55.53;100998.38;4996728;28;20042;-76
2022/06/08 00:53:34;;;;;;;2.25;2.05;;;;;;;8.49;55.56;100996.66;4976210;28;20082;-77
2022/06/08 00:56:05;;;;;;;7.43;3.10;;;;;;;8.46;55.76;100996.75;4970544;28;20360;-77
2022/06/08 00:58:33;;;;;;;6.28;2.92;;;;;;;8.39;55.77;100991.78;4961304;28;20042;-79
2022/06/08 01:00:58;;;;;;;8.63;3.53;;;;;;;8.33;56.03;100995.41;4977445;28;20170;-80
2022/06/08 01:03:26;;;;;;;3.33;2.08;;;;;;;8.35;55.98;100988.41;4968283;28;20065;-78
2022/06/08 01:06:05;;;;;;;5.18;3.10;;;;;;;8.29;56.26;100985.97;4988028;28;20368;-77
2022/06/08 01:08:46;;;;;;;5.78;2.90;;;;;;;8.27;56.25;100985.16;4988418;28;20070;-79
2022/06/08 01:11:21;;;;;;;5.72;3.10;;;;;;;8.19;56.27;100984.53;4971661;28;20035;-78
2022/06/08 01:13:48;;;;;;;5.13;2.60;;;;;;;8.17;56.49;100983.72;4985573;28;20517;-79
2022/06/08 01:16:17;;;;;;;7.80;2.58;;;;;;;8.17;56.12;100976.75;4972140;28;20034;-79
2022/06/08 01:18:44;;;;;;;7.93;2.78;;;;;;;8.19;56.11;100981.94;4972651;28;20042;-77
2022/06/08 01:21:20;;;;;;;5.93;2.83;;;;;;;8.18;56.06;100972.41;4975930;28;20035;-77
2022/06/08 01:23:55;;;;;;;4.20;2.28;;;;;;;8.23;55.71;100978.34;4974545;28;20056;-76
2022/06/08 01:26:58;;;;;;;12.65;2.53;;;;;;;8.17;55.45;100974.16;4975127;28;20023;-77
2022/06/08 01:29:29;;;;;;;6.78;2.75;;;;;;;8.21;55.68;100972.34;4988426;28;22404;-78
2022/06/08 01:32:20;;;;;;;2.15;1.95;;;;;;;8.20;55.45;100973.22;4971914;28;20519;-79
2022/06/08 01:34:54;;;;;;;2.90;2.42;;;;;;;8.04;55.72;100965.84;4972893;28;20038;-79
2022/06/08 01:37:30;;;;;;;3.47;2.22;;;;;;;8.01;55.92;100965.94;5002155;28;20046;-76
2022/06/08 01:40:05;;;;;;;3.33;2.83;;;;;;;8.01;55.79;100958.13;4958080;28;20046;-77
2022/06/08 01:43:28;;;;;;;3.95;2.22;;;;;;;8.07;55.38;100963.16;4975648;28;20050;-76
2022/06/08 01:46:20;;;;;;;3.50;1.83;;;;;;;8.04;55.28;100963.22;4921675;29;20095;-78
2022/06/08 01:49:15;;;;;;;3.50;2.38;;;;;;;7.95;55.73;100953.91;4892203;29;20047;-78
2022/06/08 01:51:51;;;;;;;4.32;3.42;;;;;;;7.90;56.29;100954.97;4945648;28;20056;-76
2022/06/08 01:54:53;;;;;;;5.95;4.15;;;;;;;7.90;56.48;100949.75;4961412;28;20500;-77
2022/06/08 01:57:30;;;;;;;5.00;3.55;;;;;;;7.88;56.41;100947.19;4963948;28;20046;-78
2022/06/08 02:00:02;;;;;;;7.70;4.53;;;;;;;7.86;56.26;100942.94;4984135;28;20031;-78
2022/06/08 02:02:50;;;;;;;7.68;4.18;;;;;;;7.83;56.49;100941.25;4973328;28;20039;-77
2022/06/08 02:05:30;;;;;;;6.57;3.85;;;;;;;7.91;56.29;100946.25;4975131;28;20027;-77
2022/06/08 02:08:13;;;;;;;6.75;4.13;;;;;;;7.85;56.44;100938.63;4975196;28;20069;-77
2022/06/08 02:10:51;;;;;;;7.32;4.82;;;;;;;7.83;56.17;100940.41;4974598;28;20090;-77
2022/06/08 02:13:30;;;;;;;6.75;4.25;;;;;;;7.84;56.30;100945.56;4993601;28;20043;-75
2022/06/08 02:16:05;;;;;;;7.65;3.60;;;;;;;7.80;56.60;100943.97;4963473;28;20049;-76
2022/06/08 02:18:51;;;;;;;8.30;3.75;;;;;;;7.86;56.55;100942.94;4962952;28;20049;-78
2022/06/08 02:21:30;;;;;;;5.38;4.13;;;;;;;7.91;55.78;100941.91;4963306;28;20531;-77
2022/06/08 02:24:09;;;;;;;3.88;3.47;;;;;;;7.85;55.94;100934.28;4979237;28;20314;-78
2022/06/08 02:26:43;;;;;;;9.65;3.97;;;;;;;7.82;55.99;100936.94;4977233;28;20093;-78
2022/06/08 02:29:18;;;;;;;5.55;3.60;;;;;;;7.89;55.84;100928.09;4969713;28;20053;-79
2022/06/08 02:31:51;;;;;;;6.38;3.42;;;;;;;7.90;55.77;100931.53;4964387;28;20046;-79
2022/06/08 02:34:29;;;;;;;5.30;3.30;;;;;;;7.90;55.83;100934.16;4968326;28;20046;-77
2022/06/08 02:37:08;;;;;;;3.30;2.92;;;;;;;7.79;55.95;100931.00;4974432;28;20044;-78
2022/06/08 02:39:51;;;;;;;7.82;4.93;;;;;;;7.71;56.28;100923.38;4997549;28;20026;-76
2022/06/08 02:42:25;;;;;;;6.93;4.65;;;;;;;7.74;56.65;100918.09;4964543;28;20077;-78
2022/06/08 02:44:59;;;;;;;6.20;4.25;;;;;;;7.73;56.38;100917.25;4982213;28;20065;-77
2022/06/08 02:47:30;;;;;;;5.22;4.28;;;;;;;7.77;56.10;100911.97;4966055;28;20042;-77
2022/06/08 02:50:08;;;;;;;5.68;4.60;;;;;;;7.72;56.64;100907.72;4972640;28;20031;-75
2022/06/08 02:52:36;;;;;;;4.75;3.70;;;;;;;7.72;56.49;100910.34;4963355;28;20057;-77
2022/06/08 02:55:32;;;;;;;9.95;5.47;;;;;;;7.74;56.48;100905.94;4996387;28;20034;-76
2022/06/08 02:58:08;;;;;;;8.05;4.47;;;;;;;7.82;56.80;100907.47;4936476;28;20038;-76
2022/06/08 03:00:45;;;;;;;9.30;4.72;;;;;;;7.78;56.79;100903.25;4967616;28;20147;-78
2022/06/08 03:03:23;;;;;;;5.55;4.63;;;;;;;7.79;56.87;100900.59;4955212;28;20043;-77
2022/06/08 03:06:11;;;;;;;8.68;4.90;;;;;;;7.81;56.95;100903.19;4965240;28;20736;-77
2022/06/08 03:08:49;;;;;;;6.63;4.95;;;;;;;7.80;56.90;100891.03;4980744;28;20110;-77
2022/06/08 03:11:17;;;;;;;5.47;4.78;;;;;;;7.80;57.03;100893.66;4972601;28;20084;-78
2022/06/08 03:13:54;;;;;;;8.50;5.65;;;;;;;7.76;56.67;100890.28;4969919;28;20113;-78
2022/06/08 03:16:54;;;;;;;9.68;4.63;;;;;;;7.81;57.00;100878.00;4988664;28;20074;-77
2022/06/08 03:19:20;;;;;;;6.53;4.38;;;;;;;7.84;56.74;100882.25;4978371;28;20030;-77
2022/06/08 03:21:47;;;;;;;7.35;4.63;;;;;;;7.84;56.98;100874.47;4963782;28;20370;-76
2022/06/08 03:24:13;;;;;;;6.05;4.38;;;;;;;7.88;57.10;100876.06;4976954;28;20041;-79
2022/06/08 03:26:46;;;;;;;5.50;4.63;;;;;;;7.93;56.93;100868.97;4978981;28;20066;-76
2022/06/08 03:29:23;;;;;;;10.20;4.57;;;;;;;7.95;56.77;100880.19;4996393;28;20031;-78
2022/06/08 03:31:57;;;;;;;4.60;3.92;;;;;;;7.95;56.82;100885.41;4994490;28;20038;-78
2022/06/08 03:34:23;;;;;;;4.85;4.10;;;;;;;7.95;56.38;100888.00;4966411;28;20038;-79
2022/06/08 03:36:50;;;;;;;5.32;4.03;;;;;;;8.01;56.83;100885.25;4984157;28;20034;-78
2022/06/08 03:39:17;;;;;;;9.32;5.07;;;;;;;8.04;56.64;100885.13;4972442;28;20091;-77
2022/06/08 03:41:46;;;;;;;8.07;4.70;;;;;;;8.07;56.73;100885.06;4994310;28;20065;-80
2022/06/08 03:44:12;;;;;;;10.30;5.32;;;;;;;8.06;57.15;100878.13;4980188;28;20145;-76
2022/06/08 03:46:50;;;;;;;8.65;5.00;;;;;;;8.11;57.13;100880.59;4978782;28;20030;-76
2022/06/08 03:49:16;;;;;;;7.60;4.57;;;;;;;8.19;56.76;100877.78;4976893;28;20050;-77
2022/06/08 03:51:44;;;;;;;7.47;5.07;;;;;;;8.18;56.63;100881.28;4979163;28;20402;-76
2022/06/08 03:54:16;;;;;;;7.70;4.95;;;;;;;8.19;56.59;100880.41;4984954;28;20047;-76
2022/06/08 03:56:46;;;;;;;7.43;5.07;;;;;;;8.23;56.59;100877.66;4994618;28;20702;-79
2022/06/08 03:59:13;;;;;;;10.68;4.50;;;;;;;8.27;56.58;100881.88;4978369;28;20031;-78
2022/06/08 04:01:39;;;;;;;7.35;5.28;;;;;;;8.37;56.60;100877.22;4971594;28;20030;-78
2022/06/08 04:04:05;;;;;;;11.57;5.03;;;;;;;8.38;56.41;100873.72;4978729;28;20042;-76
2022/06/08 04:06:32;;;;;;;7.38;4.63;;;;;;;8.45;56.72;100874.38;4981647;28;20117;-79
2022/06/08 04:08:59;;;;;;;7.90;4.70;;;;;;;8.53;56.72;100875.84;4978493;28;20069;-79
2022/06/08 04:11:26;;;;;;;5.78;4.32;;;;;;;8.62;56.42;100881.66;4997606;28;20038;-76
2022/06/08 04:13:56;;;;;;;6.90;4.55;;;;;;;8.66;56.60;100878.06;4970196;28;20053;-78
2022/06/08 04:16:22;;;;;;;7.07;4.75;;;;;;;8.67;56.12;100879.75;4984254;28;20039;-77
2022/06/08 04:18:48;;;;;;;9.70;5.45;;;;;;;8.78;56.42;100888.13;4984489;28;20047;-78
2022/06/08 04:21:16;;;;;;;5.90;5.18;;;;;;;8.80;56.69;100878.50;4967399;28;20041;-77
2022/06/08 04:23:55;;;;;;;8.80;5.63;;;;;;;8.97;55.92;100891.00;4970377;28;20486;-79
2022/06/08 04:26:27;;;;;;;7.45;5.40;;;;;;;9.10;55.89;100894.06;4977247;28;20042;-76
2022/06/08 04:29:00;;;;;;;10.43;5.30;;;;;;;9.17;55.65;100898.16;4976605;28;20580;-75
2022/06/08 04:31:33;;;;;;;8.73;5.43;;;;;;;9.23;55.07;100886.66;4973702;28;20030;-77
2022/06/08 04:34:06;;;;;;;8.40;4.18;;;;;;;9.19;55.35;100891.13;4962860;28;20038;-77
2022/06/08 04:36:35;;;;;;;7.05;4.90;;;;;;;9.24;55.25;100885.75;4979328;28;20031;-76
2022/06/08 04:39:03;;;;;;;10.02;4.88;;;;;;;9.43;55.18;100891.19;4966330;28;20039;-80
2022/06/08 04:41:32;;;;;;;7.35;4.72;;;;;;;9.47;54.86;100890.16;4969579;28;20574;-79
2022/06/08 04:43:58;;;;;;;7.43;4.50;;;;;;;9.65;54.36;100881.69;4991940;28;20053;-76
2022/06/08 04:46:26;;;;;;;8.05;5.50;;;;;;;9.79;54.17;100884.69;4964804;28;20146;-78
2022/06/08 04:48:53;;;;;;;7.25;4.18;;;;;;;9.81;53.92;100876.78;4965240;28;20054;-76
2022/06/08 04:51:23;;;;;;;7.38;4.10;;;;;;;9.93;54.26;100867.66;4980900;28;20038;-77
2022/06/08 04:53:50;;;;;;;8.35;5.20;;;;;;;10.01;54.09;100869.09;4968648;28;20039;-78
2022/06/08 04:56:18;;;;;;;8.10;4.40;;;;;;;10.11;53.83;100866.97;4981353;28;20030;-77
2022/06/08 04:58:47;;;;;;;10.32;4.88;;;;;;;10.14;53.77;100874.66;4967852;28;20046;-78
2022/06/08 05:01:14;;;;;;;6.25;4.10;;;;;;;10.51;53.26;100877.63;4965956;28;20188;-78
2022/06/08 05:03:40;;;;;;;10.65;4.78;;;;;;;11.36;52.87;100878.47;4994431;28;20046;-79
2022/06/08 05:06:07;;;;;;;8.02;3.25;;;;;;;13.24;49.46;100869.69;4957092;28;20082;-77
2022/06/08 05:08:36;;;;;;;4.95;3.45;;;;;;;14.66;44.88;100858.53;4975018;28;20125;-78
2022/06/08 05:11:05;;;;;;;4.87;3.70;;;;;;;16.15;43.20;100860.13;4959706;28;20038;-78
2022/06/08 05:13:34;;;;;;;4.25;2.85;;;;;;;17.18;40.77;100869.19;4965365;28;20061;-78
2022/06/08 05:16:05;;;;;;;;;;;;;;;17.84;38.24;100859.31;4961789;28;20294;-79
2022/06/08 05:18:34;;;;;;;5.80;2.95;;;;;;;18.39;36.16;100857.19;4989608;28;20629;-80
2022/06/08 05:21:02;;;;;;;6.25;2.92;;;;;;;18.48;34.90;100859.13;4976544;28;20106;-79
2022/06/08 05:23:34;;;;;;;5.78;2.83;;;;;;;18.82;36.15;100863.72;4988860;28;20057;-80
2022/06/08 05:26:08;;;;;;;6.30;2.70;;;;;;;19.18;34.66;100857.47;4988900;28;20512;-77
2022/06/08 05:28:36;;;;;;;2.55;1.83;;;;;;;19.96;34.07;100855.78;4978957;28;20100;-77
2022/06/08 05:31:02;;;;;;;5.55;2.17;;;;;;;20.71;32.96;100851.50;4975340;28;20596;-78
2022/06/08 05:33:32;;;;;;;3.47;2.17;;;;;;;21.68;29.88;100852.06;4989660;28;20105;-79
2022/06/08 05:36:05;;;;;;;5.43;2.22;;;;;;;21.58;30.22;100853.00;4963979;28;20122;-79
2022/06/08 05:38:33;;;;;;;4.07;2.10;;;;;;;21.67;29.88;100850.41;4954466;28;20056;-79
2022/06/08 05:40:59;;;;;;;6.55;2.58;;;;;;;21.59;29.46;100849.38;4978499;28;20090;-78
2022/06/08 05:43:25;;;;;;;2.85;1.65;;;;;;;20.86;30.27;100850.22;4963471;28;20042;-79
2022/06/08 05:45:53;;;;;;;3.25;0.95;;;;;;;20.50;32.12;100849.63;4958229;28;20062;-78
2022/06/08 05:48:20;;;;;;;4.13;2.25;;;;;;;18.65;34.77;100857.91;4973706;28;20097;-80
2022/06/08 05:50:48;;;;;;;6.40;2.65;;;;;;;16.48;38.20;100860.66;4969607;28;20549;-78
2022/06/08 05:53:17;;;;;;;5.15;2.22;;;;;;;16.28;39.27;100852.25;4956756;28;20113;-80
2022/06/08 05:55:44;;;;;;;5.80;2.47;;;;;;;15.99;40.57;100846.16;4960799;28;20217;-78
2022/06/08 05:58:10;;;;;;;5.22;3.30;;;;;;;17.88;39.61;100851.19;4964889;28;20055;-76
2022/06/08 06:00:40;;;;;;;5.22;2.38;;;;;;;19.82;33.53;100846.31;4970855;28;20027;-77
2022/06/08 06:03:07;;;;;;;4.15;2.33;;;;;;;19.04;34.91;100844.44;4971727;28;20038;-79
2022/06/08 06:05:35;;;;;;;6.82;2.17;;;;;;;17.75;36.30;100856.50;4973861;28;20101;-75
2022/06/08 06:08:06;;;;;;;6.50;3.08;;;;;;;16.71;39.29;100859.13;4954626;28;20657;-78
2022/06/08 06:10:37;;;;;;;7.10;3.33;;;;;;;16.14;39.87;100862.84;4956139;28;20126;-77
2022/06/08 06:13:05;;;;;;;6.82;3.60;;;;;;;15.88;40.62;100865.28;4972211;28;20046;-77
2022/06/08 06:15:41;;;;;;;5.10;2.63;;;;;;;15.69;41.16;100860.31;4984532;28;20031;-78
2022/06/08 06:18:07;;;;;;;5.38;2.95;;;;;;;15.67;42.03;100866.63;4972674;28;20328;-79
2022/06/08 06:20:34;;;;;;;10.75;3.50;;;;;;;15.50;42.32;100868.50;4970415;28;20888;-76
2022/06/08 06:23:14;;;;;;;6.43;3.38;;;;;;;15.53;42.33;100860.44;4958448;28;20584;-77
2022/06/08 06:26:12;;;;;;;4.85;3.75;;;;;;;15.64;41.96;100861.53;4951603;28;20038;-77
2022/06/08 06:29:03;;;;;;;6.07;2.78;;;;;;;18.63;38.20;100858.94;4984463;28;20057;-78
2022/06/08 06:31:58;;;;;;;5.47;3.28;;;;;;;18.57;35.55;100851.50;4972084;28;20148;-78
2022/06/08 06:34:26;;;;;;;5.65;2.65;;;;;;;18.79;35.67;100848.91;4984869;28;20026;-80
2022/06/08 06:36:54;;;;;;;5.70;3.53;;;;;;;20.03;34.89;100840.22;4958260;28;20046;-77
2022/06/08 06:39:23;;;;;;;7.05;4.03;;;;;;;21.65;32.14;100841.72;4972488;28;20081;-78
2022/06/08 06:41:57;;;;;;;4.43;3.47;;;;;;;22.46;28.73;100836.25;4978040;28;20050;-78
2022/06/08 06:44:26;;;;;;;9.07;4.28;;;;;;;22.00;29.67;100826.25;4990196;28;20065;-77
2022/06/08 06:47:04;;;;;;;9.70;3.38;;;;;;;20.15;32.75;100833.06;4988629;28;20050;-78
2022/06/08 06:49:39;;;;;;;6.65;3.83;;;;;;;20.70;32.12;100829.38;4973369;28;20393;-78
2022/06/08 06:52:06;;;;;;;7.97;4.35;;;;;;;20.52;31.87;100833.59;4957674;28;20145;-77
2022/06/08 06:54:32;;;;;;;8.73;5.00;;;;;;;19.96;33.39;100829.28;4989005;28;20042;-77
2022/06/08 06:56:58;;;;;;;9.90;5.53;;;;;;;22.62;27.78;100829.53;4953147;28;20038;-77
2022/06/08 06:59:26;;;;;;;7.78;4.45;;;;;;;23.25;27.22;100827.16;4958007;28;20018;-77
2022/06/08 07:01:53;;;;;;;6.45;4.63;;;;;;;22.76;28.05;100826.44;4972834;28;20385;-78
2022/06/08 07:04:21;;;;;;;5.45;3.97;;;;;;;24.35;26.05;100820.97;4960731;28;20037;-76
2022/06/08 07:06:47;;;;;;;7.88;4.55;;;;;;;25.59;24.28;100819.97;4969291;28;20142;-77
2022/06/08 07:09:14;;;;;;;8.10;5.00;;;;;;;24.75;25.43;100818.78;4975563;28;20041;-78
2022/06/08 07:11:43;;;;;;;7.68;4.78;;;;;;;23.26;28.17;100823.53;4963323;28;20592;-77
2022/06/08 07:14:18;;;;;;;7.03;5.15;;;;;;;24.58;26.65;100816.00;4962836;28;20424;-78
2022/06/08 07:16:47;;;;;;;10.25;4.90;;;;;;;25.91;24.84;100815.72;4954525;28;20895;-75
2022/06/08 07:19:14;;;;;;;11.90;5.95;;;;;;;25.51;24.37;100809.19;4990045;28;20129;-78
2022/06/08 07:21:41;;;;;;;10.00;5.47;;;;;;;23.06;27.73;100800.59;4958436;28;20122;-76
2022/06/08 07:24:07;;;;;;;8.80;6.15;;;;;;;21.81;29.68;100803.13;4975454;28;20089;-77
2022/06/08 07:26:34;;;;;;;7.75;5.22;;;;;;;20.58;32.10;100793.25;4973335;28;20041;-76
2022/06/08 07:28:59;;;;;;;11.68;5.93;;;;;;;20.96;31.85;100796.31;4955470;28;20035;-78
2022/06/08 07:31:26;;;;;;;12.50;6.72;;;;;;;20.58;32.62;100787.94;4973348;28;20527;-77
2022/06/08 07:33:52;;;;;;;13.73;7.38;;;;;;;20.42;32.90;100776.94;4954394;28;20054;-76
2022/06/08 07:36:19;;;;;;;8.60;7.38;;;;;;;22.89;29.92;100773.69;4973622;28;20038;-79
2022/06/08 07:38:45;;;;;;;14.35;7.53;;;;;;;26.00;25.04;100771.88;4972266;28;20061;-78
2022/06/08 07:41:11;;;;;;;7.53;5.50;;;;;;;27.16;23.48;100760.09;4972108;28;20031;-78
2022/06/08 07:43:37;;;;;;;8.63;5.50;;;;;;;26.56;24.42;100756.00;4959500;28;20105;-77
2022/06/08 07:46:05;;;;;;;14.07;7.90;;;;;;;26.51;23.39;100759.19;4959081;28;20066;-75
2022/06/08 07:51:15;;;;;;;10.48;6.82;;;;;;;27.57;23.18;100747.31;4970914;28;20106;-77
2022/06/08 07:53:40;;;;;;;9.25;5.88;;;;;;;28.47;22.10;100748.50;4960533;28;20054;-76
2022/06/08 07:56:06;;;;;;;12.02;7.43;;;;;;;25.25;24.72;100751.28;4976226;28;20361;-80
2022/06/08 07:58:34;;;;;;;16.10;8.43;;;;;;;26.81;24.83;100757.66;4973417;28;20401;-79
2022/06/08 08:01:00;;;;;;;9.18;7.05;;;;;;;28.24;22.70;100751.25;4977730;28;20030;-78
2022/06/08 08:03:25;;;;;;;7.47;5.85;;;;;;;28.05;22.38;100745.31;4966361;28;20109;-77
2022/06/08 08:05:52;;;;;;;10.48;7.50;;;;;;;26.09;24.94;100752.19;4966696;28;20042;-77
2022/06/08 08:08:19;;;;;;;11.90;7.05;;;;;;;24.79;26.46;100748.00;4958817;28;20531;-80
2022/06/08 08:10:45;;;;;;;9.45;6.57;;;;;;;24.05;28.05;100744.75;4959758;28;20185;-77
2022/06/08 08:13:11;;;;;;;9.45;5.47;;;;;;;23.91;28.67;100742.63;4958825;28;20108;-76
2022/06/08 08:15:38;;;;;;;11.52;8.88;;;;;;;24.05;28.33;100750.09;4970084;28;20735;-77
2022/06/08 08:18:04;;;;;;;9.90;6.45;;;;;;;23.33;28.60;100738.47;4975323;28;20042;-77
2022/06/08 08:20:31;;;;;;;11.02;6.55;;;;;;;22.90;29.73;100742.56;4958972;28;20203;-75
2022/06/08 08:22:57;;;;;;;10.63;6.07;;;;;;;23.14;29.76;100732.22;4951554;28;20043;-76
2022/06/08 08:25:25;;;;;;;9.63;6.38;;;;;;;25.22;26.58;100738.22;4972377;28;20089;-77
2022/06/08 08:27:51;;;;;;;10.25;5.28;;;;;;;26.00;26.17;100732.56;4968025;28;20050;-78
2022/06/08 08:30:19;;;;;;;8.40;5.40;;;;;;;26.23;24.79;100731.94;4976492;28;20038;-76
2022/06/08 08:32:44;;;;;;;6.53;4.00;;;;;;;27.40;24.65;100722.41;4983670;28;20063;-76
2022/06/08 08:35:11;;;;;;;7.07;4.97;;;;;;;26.57;24.89;100723.66;4959474;28;20066;-77
2022/06/08 08:37:37;;;;;;;8.52;5.38;;;;;;;26.38;24.87;100714.16;4952961;28;20042;-77
2022/06/08 08:40:05;;;;;;;7.80;5.13;;;;;;;26.13;25.29;100710.66;4984217;28;20026;-78
2022/06/08 08:42:32;;;;;;;7.55;5.38;;;;;;;24.83;26.89;100719.97;4961543;28;20049;-78
2022/06/08 08:45:11;;;;;;;8.20;4.97;;;;;;;24.47;27.39;100704.06;4958205;28;20230;-78
2022/06/08 08:47:45;;;;;;;4.68;4.22;;;;;;;25.94;25.44;100711.81;4969219;28;20120;-76
2022/06/08 08:50:36;;;;;;;10.52;5.65;;;;;;;26.51;25.13;100708.25;4970142;28;20065;-78
2022/06/08 08:53:07;;;;;;;6.90;5.72;;;;;;;25.05;27.65;100708.72;4987128;28;20046;-75
2022/06/08 08:55:52;;;;;;;7.07;5.38;;;;;;;23.54;29.61;100704.41;5001603;28;20038;-79
2022/06/08 08:58:30;;;;;;;14.85;8.07;;;;;;;22.72;30.66;100699.88;4981445;28;20049;-78
2022/06/08 09:01:09;;;;;;;9.82;6.57;;;;;;;23.58;29.51;100705.75;4958983;28;20129;-77
2022/06/08 09:03:39;;;;;;;8.68;5.50;;;;;;;24.39;29.81;100702.16;4986749;28;20088;-79
2022/06/08 09:06:20;;;;;;;9.77;6.78;;;;;;;23.75;28.57;100706.75;4986611;28;20553;-79
2022/06/08 09:08:48;;;;;;;6.93;5.80;;;;;;;22.49;30.99;100710.81;4977336;28;20050;-80
2022/06/08 09:11:35;;;;;;;10.63;6.30;;;;;;;21.64;33.14;100712.34;4969652;28;20125;-79
2022/06/08 09:14:03;;;;;;;7.85;6.28;;;;;;;19.93;35.80;100720.78;4989933;28;20054;-76
2022/06/08 09:16:35;;;;;;;11.35;5.97;;;;;;;20.30;35.13;100721.22;4976159;28;20126;-78
2022/06/08 09:19:19;;;;;;;11.43;6.65;;;;;;;20.12;35.96;100712.97;4982069;28;20384;-77
2022/06/08 09:21:45;;;;;;;7.55;5.57;;;;;;;20.57;34.82;100711.91;4959191;28;20070;-77
2022/06/08 09:24:31;;;;;;;11.63;6.22;;;;;;;20.40;35.57;100705.38;4965011;28;20014;-78
2022/06/08 09:27:17;;;;;;;10.00;6.25;;;;;;;20.39;35.70;100708.16;4972663;28;20046;-77
2022/06/08 09:30:11;;;;;;;14.82;8.57;;;;;;;20.10;36.45;100709.63;4990097;28;20097;-76
2022/06/08 09:32:37;;;;;;;14.98;8.35;;;;;;;19.69;36.85;100713.03;4950796;28;20255;-77
2022/06/08 09:35:16;;;;;;;10.10;6.93;;;;;;;19.64;37.77;100713.41;4974527;28;20106;-77
2022/06/08 09:37:42;;;;;;;12.40;7.70;;;;;;;19.61;37.69;100710.97;4962213;28;20773;-76
2022/06/08 09:40:36;;;;;;;10.93;7.10;;;;;;;19.75;37.49;100711.66;4972388;28;20023;-77
2022/06/08 09:43:28;;;;;;;11.30;7.73;;;;;;;20.02;36.23;100704.09;4973676;28;20046;-76
2022/06/08 09:45:54;;;;;;;14.02;8.02;;;;;;;20.43;36.01;100699.81;4992084;28;20101;-77
2022/06/08 09:51:42;;;;;;;8.85;6.78;;;;;;;21.19;35.03;100694.19;4997249;28;20043;-77
2022/06/08 09:54:40;;;;;;;11.60;6.18;;;;;;;21.64;33.62;100685.75;4968579;28;20062;-78
2022/06/08 09:57:32;;;;;;;9.70;6.43;;;;;;;21.63;34.07;100688.56;4978781;28;22921;-76
2022/06/08 10:00:12;;;;;;;10.63;6.07;;;;;;;21.70;33.42;100689.69;4992470;28;20675;-76
2022/06/08 10:02:52;;;;;;;6.30;5.22;;;;;;;22.53;32.03;100687.41;4979562;28;20050;-75
2022/06/08 10:05:48;;;;;;;7.07;6.15;;;;;;;21.52;33.14;100686.88;4986525;28;20155;-78
2022/06/08 10:08:24;;;;;;;7.72;5.60;;;;;;;21.98;33.59;100682.72;4979469;28;20047;-74
2022/06/08 10:10:53;;;;;;;11.40;5.28;;;;;;;21.55;33.92;100676.78;4975897;28;20501;-77
2022/06/08 10:13:42;;;;;;;6.90;5.00;;;;;;;22.10;32.73;100676.28;5011666;28;20104;-77
2022/06/08 10:16:20;;;;;;;5.32;4.80;;;;;;;22.53;32.35;100677.59;4972732;28;20030;-75
2022/06/08 10:18:49;;;;;;;10.88;4.90;;;;;;;22.75;31.61;100680.91;4975669;28;20042;-76
2022/06/08 10:21:23;;;;;;;6.72;4.68;;;;;;;22.41;31.92;100678.75;4993313;28;20030;-79
2022/06/08 10:24:02;;;;;;;5.20;4.20;;;;;;;22.37;31.97;100669.38;4961948;28;20050;-77
2022/06/08 10:26:35;;;;;;;10.93;4.25;;;;;;;22.43;32.22;100671.47;4971512;28;20464;-74
2022/06/08 10:29:35;;;;;;;5.03;4.30;;;;;;;22.76;32.23;100669.25;4955960;28;20209;-77
2022/06/08 10:32:14;;;;;;;5.10;3.83;;;;;;;22.78;31.68;100664.63;4994962;28;20054;-77
2022/06/08 10:34:41;;;;;;;9.95;3.72;;;;;;;23.26;31.37;100657.38;4978565;28;20617;-77
2022/06/08 10:37:25;;;;;;;11.20;4.65;;;;;;;24.00;30.04;100657.13;4964182;28;20515;-78
2022/06/08 10:39:53;;;;;;;4.88;3.15;;;;;;;23.92;29.19;100651.72;4990960;28;20035;-77
2022/06/08 10:42:40;;;;;;;5.70;2.40;;;;;;;22.84;31.33;100657.88;4974805;28;20053;-77
2022/06/08 10:45:37;;;;;;;2.97;2.47;;;;;;;22.67;30.98;100649.63;4984372;28;20038;-76
2022/06/08 10:48:14;;;;;;;3.53;2.33;;;;;;;22.89;30.65;100648.44;4945104;28;20046;-75
2022/06/08 10:50:48;;;;;;;5.90;2.78;;;;;;;23.32;30.70;100643.47;4975845;28;20461;-78
2022/06/08 10:56:36;;;;;;;3.85;2.47;;;;;;;22.90;31.44;100631.50;4973167;28;20265;-80
2022/06/08 10:59:08;;;;;;;6.40;2.40;;;;;;;22.65;31.73;100640.97;4928971;28;20382;-78
2022/06/08 11:02:23;;;;;;;4.10;2.63;;;;;;;21.92;33.66;100638.88;4989324;28;20501;-77
2022/06/08 11:05:09;;;;;;;4.47;2.13;;;;;;;22.34;32.92;100635.88;4912678;28;20046;-77
2022/06/08 11:08:00;;;;;;;3.40;2.30;;;;;;;21.80;32.94;100639.16;4916061;29;20253;-76
2022/06/08 11:10:41;;;;;;;1.88;1.50;;;;;;;21.55;33.52;100633.41;4963341;28;20070;-78
2022/06/08 11:13:50;;;;;;;3.10;2.45;;;;;;;22.44;32.56;100630.53;4974508;28;20046;-76
2022/06/08 11:16:26;;;;;;;3.35;1.75;;;;;;;23.40;32.13;100628.38;4969642;28;20026;-78
2022/06/08 11:18:58;;;;;;;2.85;1.98;;;;;;;23.40;31.03;100627.56;4966011;28;20038;-76
2022/06/08 11:21:41;;;;;;;4.80;2.83;;;;;;;23.10;31.12;100618.91;4973562;28;20377;-78
2022/06/08 11:24:28;;;;;;;4.03;1.60;;;;;;;23.60;32.05;100613.06;4979786;28;20133;-77
2022/06/08 11:27:32;;;;;;;3.00;1.65;;;;;;;24.40;30.06;100620.19;4982412;28;20027;-78
2022/06/08 11:30:14;;;;;;;6.13;1.55;;;;;;;24.74;29.92;100616.69;4969782;28;20043;-77
2022/06/08 11:32:52;;;;;;;2.90;1.48;;;;;;;24.42;29.43;100612.88;4994583;28;20057;-78
2022/06/08 11:35:36;;;;;;;3.13;2.20;;;;;;;24.61;29.10;100611.78;4950494;28;20898;-76
2022/06/08 11:38:17;;;;;;;1.90;1.42;;;;;;;24.31;29.65;100615.78;4967090;28;20054;-78
2022/06/08 11:40:43;;;;;;;2.92;1.77;;;;;;;24.34;29.80;100604.78;4985041;28;20041;-76
2022/06/08 11:43:15;;;;;;;2.13;1.55;;;;;;;24.69;29.69;100611.00;4971127;28;20046;-79
2022/06/08 11:45:52;;;;;;;2.58;1.42;;;;;;;24.64;28.25;100601.63;4967389;28;20034;-76
2022/06/08 11:48:22;;;;;;;2.67;1.80;;;;;;;23.95;30.58;100600.72;4969395;28;20121;-78
2022/06/08 11:50:47;;;;;;;2.08;1.40;;;;;;;23.66;30.57;100600.97;4978775;28;20054;-78
2022/06/08 11:53:20;;;;;;;2.53;1.13;;;;;;;23.23;31.02;100599.00;4948788;28;20045;-74
2022/06/08 11:56:12;;;;;;;2.50;1.00;;;;;;;22.74;31.44;100593.97;4968120;28;20034;-76
2022/06/08 11:58:44;;;;;;;1.80;0.80;;;;;;;22.35;31.94;100599.44;4971541;28;20250;-78
2022/06/08 12:01:16;;;;;;;2.92;0.73;;;;;;;22.74;31.48;100591.31;4966506;28;20042;-80
2022/06/08 12:03:44;;;;;;;2.50;1.30;;;;;;;22.49;31.33;100593.63;4958599;28;20054;-78
2022/06/08 12:06:13;;;;;;;3.40;0.98;;;;;;;23.92;29.61;100597.50;4974552;28;20042;-80